sensor_id;sensor_type;location;lat;lon;timestamp;P1;durP1;ratioP1;P2;durP2;ratioP2
7233;SDS011;3658;47.992;10.158;2023-04-01T00:00:32;0.60;;;0.60;;
7233;SDS011;3658;47.992;10.158;2023-04-01T00:02:59;0.73;;;0.70;;
7233;SDS011;3658;47.992;10.158;2023-04-01T00:05:26;0.73;;;0.73;;
7233;SDS011;3658;47.992;10.158;2023-04-01T00:07:53;0.70;;;0.70;;
7233;SDS011;3658;47.992;10.158;2023-04-01T00:10:21;1.53;;;0.80;;
7233;SDS011;3658;47.992;10.158;2023-04-01T00:12:48;0.87;;;0.87;;
7233;SDS011;3658;47.992;10.158;2023-04-01T00:15:15;1.97;;;0.80;;
7233;SDS011;3658;47.992;10.158;2023-04-01T00:17:42;0.90;;;0.90;;
7233;SDS011;3658;47.992;10.158;2023-04-01T00:20:10;1.10;;;0.90;;
7233;SDS011;3658;47.992;10.158;2023-04-01T00:22:39;0.90;;;0.90;;
7233;SDS011;3658;47.992;10.158;2023-04-01T00:25:06;0.97;;;0.83;;
7233;SDS011;3658;47.992;10.158;2023-04-01T00:27:35;0.60;;;0.60;;
7233;SDS011;3658;47.992;10.158;2023-04-01T00:30:02;1.00;;;0.83;;
7233;SDS011;3658;47.992;10.158;2023-04-01T00:32:30;0.70;;;0.70;;
7233;SDS011;3658;47.992;10.158;2023-04-01T00:34:57;0.60;;;0.60;;
7233;SDS011;3658;47.992;10.158;2023-04-01T00:37:24;0.87;;;0.80;;
7233;SDS011;3658;47.992;10.158;2023-04-01T00:39:52;0.93;;;0.87;;
7233;SDS011;3658;47.992;10.158;2023-04-01T00:42:19;1.63;;;0.70;;
7233;SDS011;3658;47.992;10.158;2023-04-01T00:44:49;1.07;;;0.97;;
7233;SDS011;3658;47.992;10.158;2023-04-01T00:47:17;0.83;;;0.77;;
7233;SDS011;3658;47.992;10.158;2023-04-01T00:49:46;0.70;;;0.70;;
7233;SDS011;3658;47.992;10.158;2023-04-01T00:52:15;0.80;;;0.80;;
7233;SDS011;3658;47.992;10.158;2023-04-01T00:54:47;0.70;;;0.70;;
7233;SDS011;3658;47.992;10.158;2023-04-01T00:57:20;0.70;;;0.70;;
7233;SDS011;3658;47.992;10.158;2023-04-01T00:59:52;1.00;;;0.87;;
7233;SDS011;3658;47.992;10.158;2023-04-01T01:02:21;0.70;;;0.70;;
7233;SDS011;3658;47.992;10.158;2023-04-01T01:04:48;0.80;;;0.80;;
7233;SDS011;3658;47.992;10.158;2023-04-01T01:07:18;2.30;;;0.73;;
7233;SDS011;3658;47.992;10.158;2023-04-01T01:09:53;1.10;;;1.00;;
7233;SDS011;3658;47.992;10.158;2023-04-01T01:12:29;1.10;;;1.00;;
7233;SDS011;3658;47.992;10.158;2023-04-01T01:15:06;0.80;;;0.80;;
7233;SDS011;3658;47.992;10.158;2023-04-01T01:17:46;0.80;;;0.80;;
7233;SDS011;3658;47.992;10.158;2023-04-01T01:20:24;0.87;;;0.70;;
7233;SDS011;3658;47.992;10.158;2023-04-01T01:26:24;1.27;;;0.87;;
7233;SDS011;3658;47.992;10.158;2023-04-01T01:29:22;1.20;;;0.90;;
7233;SDS011;3658;47.992;10.158;2023-04-01T01:32:11;2.47;;;1.10;;
7233;SDS011;3658;47.992;10.158;2023-04-01T01:34:51;0.70;;;0.70;;
7233;SDS011;3658;47.992;10.158;2023-04-01T01:37:25;3.23;;;0.90;;
7233;SDS011;3658;47.992;10.158;2023-04-01T01:39:54;1.57;;;0.90;;
7233;SDS011;3658;47.992;10.158;2023-04-01T01:42:24;0.70;;;0.70;;
7233;SDS011;3658;47.992;10.158;2023-04-01T01:44:54;0.67;;;0.67;;
7233;SDS011;3658;47.992;10.158;2023-04-01T01:47:22;0.60;;;0.60;;
7233;SDS011;3658;47.992;10.158;2023-04-01T01:49:51;0.70;;;0.70;;
7233;SDS011;3658;47.992;10.158;2023-04-01T01:52:19;0.80;;;0.73;;
7233;SDS011;3658;47.992;10.158;2023-04-01T01:54:48;1.07;;;0.97;;
7233;SDS011;3658;47.992;10.158;2023-04-01T01:57:15;0.80;;;0.80;;
7233;SDS011;3658;47.992;10.158;2023-04-01T01:59:45;0.63;;;0.63;;
7233;SDS011;3658;47.992;10.158;2023-04-01T02:02:14;0.70;;;0.70;;
7233;SDS011;3658;47.992;10.158;2023-04-01T02:04:43;0.60;;;0.60;;
7233;SDS011;3658;47.992;10.158;2023-04-01T02:07:13;1.30;;;0.87;;
7233;SDS011;3658;47.992;10.158;2023-04-01T02:09:45;0.70;;;0.70;;
7233;SDS011;3658;47.992;10.158;2023-04-01T02:12:13;0.50;;;0.50;;
7233;SDS011;3658;47.992;10.158;2023-04-01T02:14:43;0.70;;;0.70;;
7233;SDS011;3658;47.992;10.158;2023-04-01T02:17:14;1.33;;;0.80;;
7233;SDS011;3658;47.992;10.158;2023-04-01T02:19:45;0.80;;;0.80;;
7233;SDS011;3658;47.992;10.158;2023-04-01T02:22:16;0.50;;;0.50;;
7233;SDS011;3658;47.992;10.158;2023-04-01T02:24:46;0.90;;;0.90;;
7233;SDS011;3658;47.992;10.158;2023-04-01T02:27:16;0.93;;;0.90;;
7233;SDS011;3658;47.992;10.158;2023-04-01T02:29:44;0.70;;;0.70;;
7233;SDS011;3658;47.992;10.158;2023-04-01T02:32:11;0.60;;;0.60;;
7233;SDS011;3658;47.992;10.158;2023-04-01T02:34:40;1.90;;;0.50;;
7233;SDS011;3658;47.992;10.158;2023-04-01T02:37:08;1.03;;;0.60;;
7233;SDS011;3658;47.992;10.158;2023-04-01T02:39:36;1.60;;;0.80;;
7233;SDS011;3658;47.992;10.158;2023-04-01T02:42:03;0.60;;;0.60;;
7233;SDS011;3658;47.992;10.158;2023-04-01T02:44:32;0.90;;;0.60;;
7233;SDS011;3658;47.992;10.158;2023-04-01T02:46:59;0.60;;;0.60;;
7233;SDS011;3658;47.992;10.158;2023-04-01T02:49:26;0.73;;;0.70;;
7233;SDS011;3658;47.992;10.158;2023-04-01T02:51:53;0.63;;;0.63;;
7233;SDS011;3658;47.992;10.158;2023-04-01T02:54:20;0.73;;;0.67;;
7233;SDS011;3658;47.992;10.158;2023-04-01T02:56:47;1.77;;;0.80;;
7233;SDS011;3658;47.992;10.158;2023-04-01T02:59:14;0.97;;;0.83;;
7233;SDS011;3658;47.992;10.158;2023-04-01T03:01:42;0.87;;;0.73;;
7233;SDS011;3658;47.992;10.158;2023-04-01T03:04:09;1.70;;;0.70;;
7233;SDS011;3658;47.992;10.158;2023-04-01T03:06:36;1.40;;;0.73;;
7233;SDS011;3658;47.992;10.158;2023-04-01T03:09:04;0.70;;;0.70;;
7233;SDS011;3658;47.992;10.158;2023-04-01T03:11:32;0.70;;;0.70;;
7233;SDS011;3658;47.992;10.158;2023-04-01T03:13:59;0.63;;;0.63;;
7233;SDS011;3658;47.992;10.158;2023-04-01T03:16:26;1.03;;;0.60;;
7233;SDS011;3658;47.992;10.158;2023-04-01T03:18:54;1.43;;;0.60;;
7233;SDS011;3658;47.992;10.158;2023-04-01T03:21:24;0.77;;;0.70;;
7233;SDS011;3658;47.992;10.158;2023-04-01T03:23:51;0.60;;;0.60;;
7233;SDS011;3658;47.992;10.158;2023-04-01T03:26:18;0.60;;;0.60;;
7233;SDS011;3658;47.992;10.158;2023-04-01T03:28:46;0.60;;;0.60;;
7233;SDS011;3658;47.992;10.158;2023-04-01T03:31:13;0.70;;;0.70;;
7233;SDS011;3658;47.992;10.158;2023-04-01T03:33:41;0.70;;;0.70;;
7233;SDS011;3658;47.992;10.158;2023-04-01T03:36:09;0.50;;;0.50;;
7233;SDS011;3658;47.992;10.158;2023-04-01T03:38:37;0.60;;;0.60;;
7233;SDS011;3658;47.992;10.158;2023-04-01T03:41:05;0.77;;;0.70;;
7233;SDS011;3658;47.992;10.158;2023-04-01T03:43:32;0.60;;;0.60;;
7233;SDS011;3658;47.992;10.158;2023-04-01T03:45:59;0.70;;;0.70;;
7233;SDS011;3658;47.992;10.158;2023-04-01T03:48:27;0.60;;;0.60;;
7233;SDS011;3658;47.992;10.158;2023-04-01T03:50:53;1.00;;;0.70;;
7233;SDS011;3658;47.992;10.158;2023-04-01T03:53:22;0.70;;;0.70;;
7233;SDS011;3658;47.992;10.158;2023-04-01T03:55:49;0.87;;;0.80;;
7233;SDS011;3658;47.992;10.158;2023-04-01T03:58:17;0.67;;;0.67;;
7233;SDS011;3658;47.992;10.158;2023-04-01T04:00:44;1.10;;;0.83;;
7233;SDS011;3658;47.992;10.158;2023-04-01T04:03:11;0.93;;;0.60;;
7233;SDS011;3658;47.992;10.158;2023-04-01T04:05:40;0.60;;;0.60;;
7233;SDS011;3658;47.992;10.158;2023-04-01T04:08:12;0.73;;;0.73;;
7233;SDS011;3658;47.992;10.158;2023-04-01T04:10:40;1.10;;;0.80;;
7233;SDS011;3658;47.992;10.158;2023-04-01T04:13:08;0.60;;;0.60;;
7233;SDS011;3658;47.992;10.158;2023-04-01T04:15:35;0.70;;;0.70;;
7233;SDS011;3658;47.992;10.158;2023-04-01T04:18:02;0.70;;;0.67;;
7233;SDS011;3658;47.992;10.158;2023-04-01T04:20:29;0.83;;;0.70;;
7233;SDS011;3658;47.992;10.158;2023-04-01T04:22:56;0.80;;;0.80;;
7233;SDS011;3658;47.992;10.158;2023-04-01T04:25:22;0.60;;;0.60;;
7233;SDS011;3658;47.992;10.158;2023-04-01T04:27:51;0.60;;;0.60;;
7233;SDS011;3658;47.992;10.158;2023-04-01T04:30:18;0.70;;;0.70;;
7233;SDS011;3658;47.992;10.158;2023-04-01T04:32:45;0.70;;;0.70;;
7233;SDS011;3658;47.992;10.158;2023-04-01T04:35:12;1.27;;;0.80;;
7233;SDS011;3658;47.992;10.158;2023-04-01T04:37:39;0.70;;;0.70;;
7233;SDS011;3658;47.992;10.158;2023-04-01T04:40:07;0.60;;;0.60;;
7233;SDS011;3658;47.992;10.158;2023-04-01T04:42:34;0.97;;;0.67;;
7233;SDS011;3658;47.992;10.158;2023-04-01T04:45:03;0.60;;;0.60;;
7233;SDS011;3658;47.992;10.158;2023-04-01T04:47:30;0.50;;;0.50;;
7233;SDS011;3658;47.992;10.158;2023-04-01T04:49:57;0.93;;;0.80;;
7233;SDS011;3658;47.992;10.158;2023-04-01T04:52:24;0.70;;;0.70;;
7233;SDS011;3658;47.992;10.158;2023-04-01T04:54:51;1.00;;;0.90;;
7233;SDS011;3658;47.992;10.158;2023-04-01T04:57:18;0.67;;;0.67;;
7233;SDS011;3658;47.992;10.158;2023-04-01T04:59:45;1.00;;;0.70;;
7233;SDS011;3658;47.992;10.158;2023-04-01T05:02:14;0.60;;;0.60;;
7233;SDS011;3658;47.992;10.158;2023-04-01T05:04:41;0.70;;;0.70;;
7233;SDS011;3658;47.992;10.158;2023-04-01T05:07:08;0.60;;;0.60;;
7233;SDS011;3658;47.992;10.158;2023-04-01T05:09:35;0.60;;;0.60;;
7233;SDS011;3658;47.992;10.158;2023-04-01T05:12:01;1.17;;;1.07;;
7233;SDS011;3658;47.992;10.158;2023-04-01T05:14:29;1.00;;;0.80;;
7233;SDS011;3658;47.992;10.158;2023-04-01T05:16:55;0.60;;;0.60;;
7233;SDS011;3658;47.992;10.158;2023-04-01T05:19:24;0.60;;;0.60;;
7233;SDS011;3658;47.992;10.158;2023-04-01T05:21:51;1.43;;;1.00;;
7233;SDS011;3658;47.992;10.158;2023-04-01T05:24:18;0.90;;;0.70;;
7233;SDS011;3658;47.992;10.158;2023-04-01T05:26:45;0.60;;;0.60;;
7233;SDS011;3658;47.992;10.158;2023-04-01T05:29:12;0.93;;;0.70;;
7233;SDS011;3658;47.992;10.158;2023-04-01T05:31:39;1.33;;;0.70;;
7233;SDS011;3658;47.992;10.158;2023-04-01T05:34:06;0.83;;;0.63;;
7233;SDS011;3658;47.992;10.158;2023-04-01T05:36:35;0.60;;;0.60;;
7233;SDS011;3658;47.992;10.158;2023-04-01T05:39:02;0.60;;;0.60;;
7233;SDS011;3658;47.992;10.158;2023-04-01T05:41:29;1.10;;;1.00;;
7233;SDS011;3658;47.992;10.158;2023-04-01T05:43:57;17.20;;;1.33;;
7233;SDS011;3658;47.992;10.158;2023-04-01T05:46:24;4.43;;;0.80;;
7233;SDS011;3658;47.992;10.158;2023-04-01T05:48:52;1.80;;;0.87;;
7233;SDS011;3658;47.992;10.158;2023-04-01T05:51:21;1.03;;;0.70;;
7233;SDS011;3658;47.992;10.158;2023-04-01T05:53:50;1.00;;;1.00;;
7233;SDS011;3658;47.992;10.158;2023-04-01T05:56:17;0.77;;;0.70;;
7233;SDS011;3658;47.992;10.158;2023-04-01T05:58:44;1.27;;;0.90;;
7233;SDS011;3658;47.992;10.158;2023-04-01T06:01:16;3.70;;;1.03;;
7233;SDS011;3658;47.992;10.158;2023-04-01T06:03:44;0.70;;;0.70;;
7233;SDS011;3658;47.992;10.158;2023-04-01T06:06:13;2.37;;;0.93;;
7233;SDS011;3658;47.992;10.158;2023-04-01T06:08:46;1.47;;;0.90;;
7233;SDS011;3658;47.992;10.158;2023-04-01T06:11:18;2.33;;;0.90;;
7233;SDS011;3658;47.992;10.158;2023-04-01T06:16:58;1.80;;;0.83;;
7233;SDS011;3658;47.992;10.158;2023-04-01T06:19:34;1.23;;;1.00;;
7233;SDS011;3658;47.992;10.158;2023-04-01T06:22:20;0.90;;;0.90;;
7233;SDS011;3658;47.992;10.158;2023-04-01T06:25:02;1.30;;;1.00;;
7233;SDS011;3658;47.992;10.158;2023-04-01T06:27:48;2.17;;;0.80;;
7233;SDS011;3658;47.992;10.158;2023-04-01T06:30:31;1.07;;;0.80;;
7233;SDS011;3658;47.992;10.158;2023-04-01T06:33:07;0.80;;;0.80;;
7233;SDS011;3658;47.992;10.158;2023-04-01T06:36:06;1.77;;;1.00;;
7233;SDS011;3658;47.992;10.158;2023-04-01T06:38:57;0.80;;;0.80;;
7233;SDS011;3658;47.992;10.158;2023-04-01T06:44:44;1.67;;;0.80;;
7233;SDS011;3658;47.992;10.158;2023-04-01T06:47:23;1.30;;;0.80;;
7233;SDS011;3658;47.992;10.158;2023-04-01T06:50:00;0.83;;;0.70;;
7233;SDS011;3658;47.992;10.158;2023-04-01T06:52:40;0.90;;;0.80;;
7233;SDS011;3658;47.992;10.158;2023-04-01T06:55:21;1.00;;;0.90;;
7233;SDS011;3658;47.992;10.158;2023-04-01T06:57:54;0.63;;;0.63;;
7233;SDS011;3658;47.992;10.158;2023-04-01T07:00:27;1.20;;;0.80;;
7233;SDS011;3658;47.992;10.158;2023-04-01T07:03:01;1.00;;;0.73;;
7233;SDS011;3658;47.992;10.158;2023-04-01T07:05:35;1.43;;;0.80;;
7233;SDS011;3658;47.992;10.158;2023-04-01T07:08:02;0.80;;;0.80;;
7233;SDS011;3658;47.992;10.158;2023-04-01T07:10:35;1.10;;;0.77;;
7233;SDS011;3658;47.992;10.158;2023-04-01T07:13:11;1.23;;;0.90;;
7233;SDS011;3658;47.992;10.158;2023-04-01T07:15:46;1.53;;;0.83;;
7233;SDS011;3658;47.992;10.158;2023-04-01T07:18:29;0.87;;;0.70;;
7233;SDS011;3658;47.992;10.158;2023-04-01T07:21:01;2.70;;;1.00;;
7233;SDS011;3658;47.992;10.158;2023-04-01T07:23:29;0.67;;;0.67;;
7233;SDS011;3658;47.992;10.158;2023-04-01T07:26:04;0.80;;;0.80;;
7233;SDS011;3658;47.992;10.158;2023-04-01T07:28:40;1.00;;;0.90;;
7233;SDS011;3658;47.992;10.158;2023-04-01T07:31:12;3.60;;;0.80;;
7233;SDS011;3658;47.992;10.158;2023-04-01T07:33:49;2.63;;;1.10;;
7233;SDS011;3658;47.992;10.158;2023-04-01T07:36:23;2.67;;;0.90;;
7233;SDS011;3658;47.992;10.158;2023-04-01T07:39:00;1.20;;;0.80;;
7233;SDS011;3658;47.992;10.158;2023-04-01T07:41:44;4.37;;;1.00;;
7233;SDS011;3658;47.992;10.158;2023-04-01T07:44:19;2.37;;;0.90;;
7233;SDS011;3658;47.992;10.158;2023-04-01T07:46:55;1.80;;;1.10;;
7233;SDS011;3658;47.992;10.158;2023-04-01T07:49:42;3.30;;;1.17;;
7233;SDS011;3658;47.992;10.158;2023-04-01T07:52:19;1.83;;;0.80;;
7233;SDS011;3658;47.992;10.158;2023-04-01T07:54:53;1.00;;;1.00;;
7233;SDS011;3658;47.992;10.158;2023-04-01T07:57:27;1.43;;;0.83;;
7233;SDS011;3658;47.992;10.158;2023-04-01T08:00:00;4.37;;;1.00;;
7233;SDS011;3658;47.992;10.158;2023-04-01T08:02:37;0.87;;;0.87;;
7233;SDS011;3658;47.992;10.158;2023-04-01T08:05:18;2.90;;;1.10;;
7233;SDS011;3658;47.992;10.158;2023-04-01T08:07:54;1.13;;;0.90;;
7233;SDS011;3658;47.992;10.158;2023-04-01T08:10:30;0.77;;;0.77;;
7233;SDS011;3658;47.992;10.158;2023-04-01T08:13:04;14.97;;;1.20;;
7233;SDS011;3658;47.992;10.158;2023-04-01T08:15:40;0.73;;;0.73;;
7233;SDS011;3658;47.992;10.158;2023-04-01T08:18:19;5.97;;;1.33;;
7233;SDS011;3658;47.992;10.158;2023-04-01T08:20:55;1.13;;;0.83;;
7233;SDS011;3658;47.992;10.158;2023-04-01T08:23:26;3.63;;;1.53;;
7233;SDS011;3658;47.992;10.158;2023-04-01T08:25:58;5.23;;;1.10;;
7233;SDS011;3658;47.992;10.158;2023-04-01T08:28:32;1.50;;;0.97;;
7233;SDS011;3658;47.992;10.158;2023-04-01T08:31:04;1.50;;;0.80;;
7233;SDS011;3658;47.992;10.158;2023-04-01T08:33:37;2.70;;;0.80;;
7233;SDS011;3658;47.992;10.158;2023-04-01T08:36:07;7.23;;;1.20;;
7233;SDS011;3658;47.992;10.158;2023-04-01T08:38:39;1.27;;;0.80;;
7233;SDS011;3658;47.992;10.158;2023-04-01T08:41:16;2.60;;;0.80;;
7233;SDS011;3658;47.992;10.158;2023-04-01T08:47:13;1.27;;;0.80;;
7233;SDS011;3658;47.992;10.158;2023-04-01T08:50:15;2.27;;;0.97;;
7233;SDS011;3658;47.992;10.158;2023-04-01T08:52:58;1.23;;;0.80;;
7233;SDS011;3658;47.992;10.158;2023-04-01T08:55:41;1.53;;;0.70;;
7233;SDS011;3658;47.992;10.158;2023-04-01T08:58:20;0.83;;;0.83;;
7233;SDS011;3658;47.992;10.158;2023-04-01T09:01:14;2.87;;;0.93;;
7233;SDS011;3658;47.992;10.158;2023-04-01T09:03:55;2.37;;;1.00;;
7233;SDS011;3658;47.992;10.158;2023-04-01T09:06:42;1.67;;;0.73;;
7233;SDS011;3658;47.992;10.158;2023-04-01T09:15:37;3.77;;;1.00;;
7233;SDS011;3658;47.992;10.158;2023-04-01T09:18:39;9.80;;;1.53;;
7233;SDS011;3658;47.992;10.158;2023-04-01T09:21:31;0.73;;;0.73;;
7233;SDS011;3658;47.992;10.158;2023-04-01T09:24:33;0.63;;;0.63;;
7233;SDS011;3658;47.992;10.158;2023-04-01T09:27:12;4.03;;;0.90;;
7233;SDS011;3658;47.992;10.158;2023-04-01T09:29:54;0.83;;;0.70;;
7233;SDS011;3658;47.992;10.158;2023-04-01T09:32:55;5.33;;;0.80;;
7233;SDS011;3658;47.992;10.158;2023-04-01T09:35:43;2.27;;;0.80;;
7233;SDS011;3658;47.992;10.158;2023-04-01T09:38:28;1.77;;;0.70;;
7233;SDS011;3658;47.992;10.158;2023-04-01T09:41:01;2.03;;;0.83;;
7233;SDS011;3658;47.992;10.158;2023-04-01T09:43:47;2.70;;;0.97;;
7233;SDS011;3658;47.992;10.158;2023-04-01T09:46:26;3.07;;;0.90;;
7233;SDS011;3658;47.992;10.158;2023-04-01T09:49:12;4.80;;;0.90;;
7233;SDS011;3658;47.992;10.158;2023-04-01T09:52:04;4.63;;;0.90;;
7233;SDS011;3658;47.992;10.158;2023-04-01T09:54:52;3.57;;;0.90;;
7233;SDS011;3658;47.992;10.158;2023-04-01T10:00:39;1.93;;;0.80;;
7233;SDS011;3658;47.992;10.158;2023-04-01T10:03:34;4.53;;;0.90;;
7233;SDS011;3658;47.992;10.158;2023-04-01T10:12:47;1.20;;;0.73;;
7233;SDS011;3658;47.992;10.158;2023-04-01T10:15:45;2.13;;;0.90;;
7233;SDS011;3658;47.992;10.158;2023-04-01T10:21:25;4.57;;;0.80;;
7233;SDS011;3658;47.992;10.158;2023-04-01T10:30:40;0.70;;;0.70;;
7233;SDS011;3658;47.992;10.158;2023-04-01T10:33:37;16.87;;;1.53;;
7233;SDS011;3658;47.992;10.158;2023-04-01T10:39:48;2.23;;;1.00;;
7233;SDS011;3658;47.992;10.158;2023-04-01T10:49:01;1.80;;;1.10;;
7233;SDS011;3658;47.992;10.158;2023-04-01T10:54:58;2.50;;;1.00;;
7233;SDS011;3658;47.992;10.158;2023-04-01T10:57:52;1.87;;;0.90;;
7233;SDS011;3658;47.992;10.158;2023-04-01T11:07:03;0.70;;;0.70;;
7233;SDS011;3658;47.992;10.158;2023-04-01T11:13:08;0.80;;;0.70;;
7233;SDS011;3658;47.992;10.158;2023-04-01T11:25:06;3.60;;;1.07;;
7233;SDS011;3658;47.992;10.158;2023-04-01T11:28:09;1.60;;;0.60;;
7233;SDS011;3658;47.992;10.158;2023-04-01T11:31:01;0.63;;;0.63;;
7233;SDS011;3658;47.992;10.158;2023-04-01T11:33:38;0.87;;;0.87;;
7233;SDS011;3658;47.992;10.158;2023-04-01T11:36:11;2.60;;;0.90;;
7233;SDS011;3658;47.992;10.158;2023-04-01T11:38:56;1.33;;;1.10;;
7233;SDS011;3658;47.992;10.158;2023-04-01T11:41:45;2.50;;;1.20;;
7233;SDS011;3658;47.992;10.158;2023-04-01T11:44:18;2.37;;;0.90;;
7233;SDS011;3658;47.992;10.158;2023-04-01T11:47:00;1.77;;;0.97;;
7233;SDS011;3658;47.992;10.158;2023-04-01T11:49:40;0.97;;;0.80;;
7233;SDS011;3658;47.992;10.158;2023-04-01T11:52:30;3.37;;;1.00;;
7233;SDS011;3658;47.992;10.158;2023-04-01T11:55:18;4.80;;;1.20;;
7233;SDS011;3658;47.992;10.158;2023-04-01T11:57:55;1.13;;;0.90;;
7233;SDS011;3658;47.992;10.158;2023-04-01T12:00:38;1.20;;;1.00;;
7233;SDS011;3658;47.992;10.158;2023-04-01T12:03:36;2.17;;;1.10;;
7233;SDS011;3658;47.992;10.158;2023-04-01T12:06:14;1.10;;;0.80;;
7233;SDS011;3658;47.992;10.158;2023-04-01T12:08:46;3.70;;;0.90;;
7233;SDS011;3658;47.992;10.158;2023-04-01T12:11:24;0.90;;;0.90;;
7233;SDS011;3658;47.992;10.158;2023-04-01T12:14:02;3.10;;;1.27;;
7233;SDS011;3658;47.992;10.158;2023-04-01T12:16:41;1.03;;;0.90;;
7233;SDS011;3658;47.992;10.158;2023-04-01T12:19:18;1.07;;;0.90;;
7233;SDS011;3658;47.992;10.158;2023-04-01T12:21:55;1.23;;;0.93;;
7233;SDS011;3658;47.992;10.158;2023-04-01T12:24:45;0.80;;;0.80;;
7233;SDS011;3658;47.992;10.158;2023-04-01T12:27:22;1.27;;;0.80;;
7233;SDS011;3658;47.992;10.158;2023-04-01T12:39:31;1.60;;;0.97;;
7233;SDS011;3658;47.992;10.158;2023-04-01T12:42:09;3.87;;;1.57;;
7233;SDS011;3658;47.992;10.158;2023-04-01T12:44:51;1.33;;;0.90;;
7233;SDS011;3658;47.992;10.158;2023-04-01T12:47:39;1.33;;;0.90;;
7233;SDS011;3658;47.992;10.158;2023-04-01T12:53:55;0.90;;;0.90;;
7233;SDS011;3658;47.992;10.158;2023-04-01T12:56:44;3.27;;;0.90;;
7233;SDS011;3658;47.992;10.158;2023-04-01T12:59:23;2.87;;;1.20;;
7233;SDS011;3658;47.992;10.158;2023-04-01T13:02:09;9.00;;;1.30;;
7233;SDS011;3658;47.992;10.158;2023-04-01T13:04:45;5.83;;;1.13;;
7233;SDS011;3658;47.992;10.158;2023-04-01T13:07:47;5.07;;;1.40;;
7233;SDS011;3658;47.992;10.158;2023-04-01T13:10:38;7.07;;;1.27;;
7233;SDS011;3658;47.992;10.158;2023-04-01T13:13:18;6.60;;;1.30;;
7233;SDS011;3658;47.992;10.158;2023-04-01T13:16:01;1.10;;;1.00;;
7233;SDS011;3658;47.992;10.158;2023-04-01T13:18:37;1.70;;;0.80;;
7233;SDS011;3658;47.992;10.158;2023-04-01T13:21:13;1.30;;;1.10;;
7233;SDS011;3658;47.992;10.158;2023-04-01T13:23:48;1.80;;;1.00;;
7233;SDS011;3658;47.992;10.158;2023-04-01T13:26:23;2.23;;;1.00;;
7233;SDS011;3658;47.992;10.158;2023-04-01T13:28:57;3.10;;;0.83;;
7233;SDS011;3658;47.992;10.158;2023-04-01T13:34:27;1.27;;;1.00;;
7233;SDS011;3658;47.992;10.158;2023-04-01T13:37:09;0.90;;;0.90;;
7233;SDS011;3658;47.992;10.158;2023-04-01T13:39:59;1.40;;;0.90;;
7233;SDS011;3658;47.992;10.158;2023-04-01T13:42:37;1.63;;;0.90;;
7233;SDS011;3658;47.992;10.158;2023-04-01T13:45:12;1.70;;;1.07;;
7233;SDS011;3658;47.992;10.158;2023-04-01T13:56:41;3.00;;;1.10;;
7233;SDS011;3658;47.992;10.158;2023-04-01T14:02:27;2.90;;;1.07;;
7233;SDS011;3658;47.992;10.158;2023-04-01T14:05:24;1.17;;;0.90;;
7233;SDS011;3658;47.992;10.158;2023-04-01T14:08:13;4.37;;;1.07;;
7233;SDS011;3658;47.992;10.158;2023-04-01T14:10:50;3.50;;;1.00;;
7233;SDS011;3658;47.992;10.158;2023-04-01T14:13:27;2.17;;;1.23;;
7233;SDS011;3658;47.992;10.158;2023-04-01T14:16:04;1.10;;;1.00;;
7233;SDS011;3658;47.992;10.158;2023-04-01T14:19:00;4.33;;;1.00;;
7233;SDS011;3658;47.992;10.158;2023-04-01T14:21:37;0.77;;;0.77;;
7233;SDS011;3658;47.992;10.158;2023-04-01T14:24:27;1.03;;;0.97;;
7233;SDS011;3658;47.992;10.158;2023-04-01T14:30:09;2.67;;;0.93;;
7233;SDS011;3658;47.992;10.158;2023-04-01T14:33:05;1.90;;;0.90;;
7233;SDS011;3658;47.992;10.158;2023-04-01T14:35:46;2.20;;;0.90;;
7233;SDS011;3658;47.992;10.158;2023-04-01T14:38:28;2.07;;;0.80;;
7233;SDS011;3658;47.992;10.158;2023-04-01T14:41:08;1.40;;;0.80;;
7233;SDS011;3658;47.992;10.158;2023-04-01T14:43:54;1.83;;;0.93;;
7233;SDS011;3658;47.992;10.158;2023-04-01T14:50:09;0.87;;;0.70;;
7233;SDS011;3658;47.992;10.158;2023-04-01T14:52:40;0.80;;;0.80;;
7233;SDS011;3658;47.992;10.158;2023-04-01T14:55:19;2.83;;;0.80;;
7233;SDS011;3658;47.992;10.158;2023-04-01T14:57:59;0.77;;;0.73;;
7233;SDS011;3658;47.992;10.158;2023-04-01T15:00:39;2.63;;;0.73;;
7233;SDS011;3658;47.992;10.158;2023-04-01T15:03:14;0.80;;;0.70;;
7233;SDS011;3658;47.992;10.158;2023-04-01T15:05:47;1.50;;;0.90;;
7233;SDS011;3658;47.992;10.158;2023-04-01T15:08:18;1.27;;;0.80;;
7233;SDS011;3658;47.992;10.158;2023-04-01T15:10:53;1.17;;;0.90;;
7233;SDS011;3658;47.992;10.158;2023-04-01T15:13:41;1.10;;;0.80;;
7233;SDS011;3658;47.992;10.158;2023-04-01T15:16:23;1.40;;;0.80;;
7233;SDS011;3658;47.992;10.158;2023-04-01T15:18:57;1.27;;;0.90;;
7233;SDS011;3658;47.992;10.158;2023-04-01T15:21:43;0.70;;;0.70;;
7233;SDS011;3658;47.992;10.158;2023-04-01T15:24:21;1.17;;;0.80;;
7233;SDS011;3658;47.992;10.158;2023-04-01T15:32:48;0.67;;;0.60;;
7233;SDS011;3658;47.992;10.158;2023-04-01T15:35:32;1.50;;;0.70;;
7233;SDS011;3658;47.992;10.158;2023-04-01T15:38:05;0.83;;;0.80;;
7233;SDS011;3658;47.992;10.158;2023-04-01T15:40:42;1.50;;;0.90;;
7233;SDS011;3658;47.992;10.158;2023-04-01T15:43:20;1.07;;;0.70;;
7233;SDS011;3658;47.992;10.158;2023-04-01T15:46:08;1.13;;;0.77;;
7233;SDS011;3658;47.992;10.158;2023-04-01T15:48:50;0.80;;;0.80;;
7233;SDS011;3658;47.992;10.158;2023-04-01T15:51:32;0.80;;;0.80;;
7233;SDS011;3658;47.992;10.158;2023-04-01T15:54:27;0.80;;;0.80;;
7233;SDS011;3658;47.992;10.158;2023-04-01T15:57:12;0.70;;;0.70;;
7233;SDS011;3658;47.992;10.158;2023-04-01T15:59:56;0.70;;;0.70;;
7233;SDS011;3658;47.992;10.158;2023-04-01T16:02:32;1.20;;;1.10;;
7233;SDS011;3658;47.992;10.158;2023-04-01T16:05:09;1.50;;;1.10;;
7233;SDS011;3658;47.992;10.158;2023-04-01T16:07:49;1.67;;;1.23;;
7233;SDS011;3658;47.992;10.158;2023-04-01T16:10:31;2.60;;;1.90;;
7233;SDS011;3658;47.992;10.158;2023-04-01T16:16:05;1.50;;;1.33;;
7233;SDS011;3658;47.992;10.158;2023-04-01T16:18:45;2.00;;;1.30;;
7233;SDS011;3658;47.992;10.158;2023-04-01T16:21:26;2.50;;;1.50;;
7233;SDS011;3658;47.992;10.158;2023-04-01T16:24:03;2.83;;;1.50;;
7233;SDS011;3658;47.992;10.158;2023-04-01T16:26:39;2.00;;;1.40;;
7233;SDS011;3658;47.992;10.158;2023-04-01T16:29:17;2.20;;;1.20;;
7233;SDS011;3658;47.992;10.158;2023-04-01T16:31:51;3.40;;;1.60;;
7233;SDS011;3658;47.992;10.158;2023-04-01T16:34:27;2.47;;;1.30;;
7233;SDS011;3658;47.992;10.158;2023-04-01T16:37:00;4.00;;;1.13;;
7233;SDS011;3658;47.992;10.158;2023-04-01T16:39:34;2.60;;;1.20;;
7233;SDS011;3658;47.992;10.158;2023-04-01T16:42:15;1.80;;;1.20;;
7233;SDS011;3658;47.992;10.158;2023-04-01T16:44:53;1.63;;;1.20;;
7233;SDS011;3658;47.992;10.158;2023-04-01T16:47:26;2.60;;;1.27;;
7233;SDS011;3658;47.992;10.158;2023-04-01T16:49:58;3.20;;;1.50;;
7233;SDS011;3658;47.992;10.158;2023-04-01T16:52:35;4.73;;;1.43;;
7233;SDS011;3658;47.992;10.158;2023-04-01T16:55:14;1.10;;;1.00;;
7233;SDS011;3658;47.992;10.158;2023-04-01T16:57:45;2.70;;;1.10;;
7233;SDS011;3658;47.992;10.158;2023-04-01T17:00:17;3.20;;;1.33;;
7233;SDS011;3658;47.992;10.158;2023-04-01T17:02:51;5.53;;;1.50;;
7233;SDS011;3658;47.992;10.158;2023-04-01T17:05:36;1.63;;;1.23;;
7233;SDS011;3658;47.992;10.158;2023-04-01T17:08:14;1.63;;;1.10;;
7233;SDS011;3658;47.992;10.158;2023-04-01T17:10:51;2.20;;;1.00;;
7233;SDS011;3658;47.992;10.158;2023-04-01T17:13:29;1.73;;;1.00;;
7233;SDS011;3658;47.992;10.158;2023-04-01T17:16:10;3.50;;;1.40;;
7233;SDS011;3658;47.992;10.158;2023-04-01T17:18:48;7.47;;;1.50;;
7233;SDS011;3658;47.992;10.158;2023-04-01T17:21:25;6.33;;;1.70;;
7233;SDS011;3658;47.992;10.158;2023-04-01T17:24:14;2.77;;;1.43;;
7233;SDS011;3658;47.992;10.158;2023-04-01T17:26:56;2.47;;;1.50;;
7233;SDS011;3658;47.992;10.158;2023-04-01T17:29:33;2.60;;;1.50;;
7233;SDS011;3658;47.992;10.158;2023-04-01T17:32:07;3.43;;;1.70;;
7233;SDS011;3658;47.992;10.158;2023-04-01T17:34:39;1.33;;;1.23;;
7233;SDS011;3658;47.992;10.158;2023-04-01T17:37:25;3.17;;;1.53;;
7233;SDS011;3658;47.992;10.158;2023-04-01T17:40:11;1.47;;;1.37;;
7233;SDS011;3658;47.992;10.158;2023-04-01T17:42:53;4.50;;;1.57;;
7233;SDS011;3658;47.992;10.158;2023-04-01T17:45:28;2.20;;;1.70;;